Time;durP1;ratioP1;P1;durP2;ratioP2;P2;SDS_P1;SDS_P2;PMS_P1;PMS_P2;Temp;Humidity;BMP_temperature;BMP_pressure;BME280_temperature;BME280_humidity;BME280_pressure;Samples;Min_cycle;Max_cycle;Signal;HPM_P1;HPM_P2
2021/12/18 00:02:00;;;;;;;2.50;1.90;;;5.20;99.90;;;;;;5034371;28;20542;-56
2021/12/18 00:04:27;;;;;;;2.10;2.00;;;5.20;99.90;;;;;;5034144;28;20483;-56
2021/12/18 00:06:54;;;;;;;3.23;2.73;;;5.20;99.90;;;;;;5034417;28;20498;-56
2021/12/18 00:09:22;;;;;;;3.17;2.87;;;5.20;99.90;;;;;;5029069;28;20448;-58
2021/12/18 00:11:50;;;;;;;3.23;2.93;;;5.20;99.90;;;;;;5025888;28;20559;-57
2021/12/18 00:14:17;;;;;;;5.30;3.50;;;5.20;99.90;;;;;;5031152;28;20474;-57
2021/12/18 00:16:44;;;;;;;2.30;2.20;;;5.20;99.90;;;;;;5033978;28;20450;-57
2021/12/18 00:19:10;;;;;;;2.67;2.47;;;5.20;99.90;;;;;;5033622;28;20529;-55
2021/12/18 00:21:37;;;;;;;2.70;1.90;;;5.20;99.90;;;;;;5034244;28;20478;-55
2021/12/18 00:24:04;;;;;;;2.07;1.97;;;5.20;99.90;;;;;;5032026;28;20479;-57
2021/12/18 00:26:32;;;;;;;6.37;2.13;;;5.20;99.90;;;;;;5034029;28;20492;-56
2021/12/18 00:28:59;;;;;;;2.23;2.13;;;5.20;99.90;;;;;;5033435;28;20509;-55
2021/12/18 00:31:26;;;;;;;2.00;1.90;;;5.20;99.90;;;;;;5032146;28;20545;-56
2021/12/18 00:33:53;;;;;;;1.87;1.77;;;5.20;99.90;;;;;;5032476;28;20514;-56
2021/12/18 00:36:19;;;;;;;2.23;2.13;;;5.20;99.90;;;;;;5033693;28;21010;-57
2021/12/18 00:38:46;;;;;;;2.77;1.80;;;5.20;99.90;;;;;;5019652;28;20535;-55
2021/12/18 00:41:26;;;;;;;2.33;2.10;;;5.20;99.90;;;;;;5013850;28;20480;-57
2021/12/18 00:44:04;;;;;;;3.27;2.00;;;5.20;99.90;;;;;;5033499;28;20521;-56
2021/12/18 00:46:33;;;;;;;2.20;2.00;;;5.20;99.90;;;;;;5033501;28;20933;-57
2021/12/18 00:48:59;;;;;;;2.30;2.10;;;5.20;99.90;;;;;;5032545;28;20509;-56
2021/12/18 00:51:26;;;;;;;3.17;1.50;;;5.20;99.90;;;;;;5031698;28;20537;-56
2021/12/18 00:53:52;;;;;;;2.03;2.00;;;5.30;99.90;;;;;;5013594;28;20552;-56
2021/12/18 00:56:19;;;;;;;3.30;2.97;;;5.20;99.90;;;;;;5015169;28;21016;-56
2021/12/18 00:58:47;;;;;;;2.00;1.90;;;5.30;99.90;;;;;;5031435;28;20451;-55
2021/12/18 01:01:15;;;;;;;4.20;2.10;;;5.20;99.90;;;;;;5033067;28;20545;-57
2021/12/18 01:03:43;;;;;;;6.93;2.20;;;5.20;99.90;;;;;;5033253;28;20474;-56
2021/12/18 01:06:10;;;;;;;6.40;2.50;;;5.20;99.90;;;;;;5032887;28;20478;-55
2021/12/18 01:08:37;;;;;;;3.27;2.60;;;5.20;99.90;;;;;;5032773;28;20482;-55
2021/12/18 01:11:24;;;;;;;2.73;2.17;;;5.30;99.90;;;;;;5031500;28;20879;-57
2021/12/18 01:14:06;;;;;;;2.03;1.83;;;5.30;99.90;;;;;;5032915;28;20489;-57
2021/12/18 01:16:43;;;;;;;3.00;2.70;;;5.20;99.90;;;;;;5032880;28;20443;-55
2021/12/18 01:24:38;;;;;;;3.53;2.10;;;5.30;99.90;;;;;;5032658;28;20481;-55
2021/12/18 01:27:05;;;;;;;3.30;1.70;;;5.30;99.90;;;;;;5032568;28;20525;-56
2021/12/18 01:29:31;;;;;;;2.00;1.90;;;5.30;99.90;;;;;;5017885;28;20478;-58
2021/12/18 01:31:59;;;;;;;3.10;2.30;;;5.20;99.90;;;;;;5025632;28;20503;-56
2021/12/18 01:34:26;;;;;;;2.57;2.37;;;5.30;99.90;;;;;;5032033;28;20532;-57
2021/12/18 01:36:52;;;;;;;2.30;2.20;;;5.30;99.90;;;;;;5032679;28;20474;-57
2021/12/18 01:39:19;;;;;;;3.67;2.40;;;5.20;99.90;;;;;;5031944;28;20482;-56
2021/12/18 01:42:01;;;;;;;4.33;2.50;;;5.20;99.90;;;;;;5030269;28;20490;-58
2021/12/18 01:44:52;;;;;;;2.20;2.10;;;5.30;99.90;;;;;;5031063;28;20560;-57
2021/12/18 01:52:56;;;;;;;2.30;2.20;;;5.20;99.90;;;;;;5013070;28;20443;-56
2021/12/18 01:55:27;;;;;;;2.47;2.37;;;5.20;99.90;;;;;;5032276;28;20494;-56
2021/12/18 01:57:54;;;;;;;3.90;2.60;;;5.20;98.60;;;;;;5030511;28;20493;-57
2021/12/18 02:00:25;;;;;;;3.13;2.83;;;5.20;99.90;;;;;;5032062;28;20960;-57
2021/12/18 02:02:53;;;;;;;2.90;2.63;;;5.20;99.90;;;;;;5031258;28;20474;-57
2021/12/18 02:05:20;;;;;;;2.80;2.70;;;5.20;93.60;;;;;;5030118;28;20545;-57
2021/12/18 02:07:47;;;;;;;3.10;2.90;;;5.20;92.90;;;;;;5031669;28;20982;-56
2021/12/18 02:10:17;;;;;;;3.17;2.47;;;5.20;96.60;;;;;;5025212;28;20505;-56
2021/12/18 02:12:50;;;;;;;3.50;3.23;;;5.20;92.90;;;;;;5027366;28;20640;-56
2021/12/18 02:20:51;;;;;;;3.00;2.80;;;5.20;97.60;;;;;;5031750;28;20574;-57
2021/12/18 02:23:18;;;;;;;6.47;3.30;;;5.20;90.40;;;;;;5031693;28;20482;-57
2021/12/18 02:25:46;;;;;;;3.53;3.23;;;5.30;92.80;;;;;;5030323;28;20491;-57
2021/12/18 02:28:17;;;;;;;3.30;3.00;;;5.30;94.20;;;;;;5013500;28;20459;-56
2021/12/18 02:30:44;;;;;;;3.37;3.10;;;5.30;93.60;;;;;;5012041;28;20447;-55
2021/12/18 02:33:11;;;;;;;2.93;2.73;;;5.20;99.90;;;;;;5012165;28;20522;-56
2021/12/18 02:35:43;;;;;;;4.00;3.53;;;5.30;97.50;;;;;;5021697;28;21019;-55
2021/12/18 02:38:16;;;;;;;2.90;2.70;;;5.30;94.50;;;;;;5029250;28;20590;-57
2021/12/18 02:41:01;;;;;;;5.00;2.70;;;5.30;97.00;;;;;;5027696;28;20849;-55
2021/12/18 02:43:29;;;;;;;3.23;2.93;;;5.30;98.60;;;;;;5015139;28;20459;-56
2021/12/18 02:45:59;;;;;;;3.00;2.90;;;5.30;99.90;;;;;;5011500;28;20483;-56
2021/12/18 02:48:27;;;;;;;3.27;3.07;;;5.30;99.90;;;;;;5011747;28;20447;-56
2021/12/18 02:50:53;;;;;;;3.40;3.10;;;5.30;96.50;;;;;;5012934;28;20948;-55
2021/12/18 02:53:21;;;;;;;4.03;2.57;;;5.30;95.80;;;;;;5031247;28;20457;-55
2021/12/18 02:55:54;;;;;;;3.97;3.30;;;5.40;96.60;;;;;;5033033;28;21024;-55
2021/12/18 02:58:21;;;;;;;3.43;3.23;;;5.40;93.20;;;;;;5042212;28;20477;-56
2021/12/18 03:00:48;;;;;;;3.60;3.30;;;5.40;96.90;;;;;;5032309;28;20508;-57
2021/12/18 03:03:15;;;;;;;3.50;3.30;;;5.30;97.40;;;;;;5030209;28;20544;-55
2021/12/18 03:05:49;;;;;;;3.50;3.30;;;5.40;91.60;;;;;;5030362;28;21195;-56
2021/12/18 03:08:30;;;;;;;3.30;3.10;;;5.40;94.50;;;;;;5031283;28;20462;-56
2021/12/18 03:20:11;;;;;;;4.00;3.67;;;5.40;99.60;;;;;;5019588;28;20809;-52
2021/12/18 03:22:54;;;;;;;4.40;4.00;;;5.40;98.50;;;;;;5034817;28;20445;-52
2021/12/18 03:25:23;;;;;;;4.17;3.87;;;5.40;99.90;;;;;;5034277;28;20975;-52
2021/12/18 03:27:51;;;;;;;4.63;3.90;;;5.40;99.90;;;;;;5033345;28;20462;-54
2021/12/18 03:30:18;;;;;;;3.97;3.70;;;5.40;99.90;;;;;;5035056;28;20446;-53
2021/12/18 03:32:45;;;;;;;4.47;4.13;;;5.40;99.90;;;;;;5034647;28;20479;-52
2021/12/18 03:35:13;;;;;;;4.20;3.90;;;5.40;99.90;;;;;;5033375;28;20491;-52
2021/12/18 03:37:40;;;;;;;3.93;3.60;;;5.40;99.90;;;;;;5034531;28;20480;-53
2021/12/18 03:40:09;;;;;;;3.83;3.53;;;5.40;99.90;;;;;;5033485;28;20490;-52
2021/12/18 03:42:36;;;;;;;4.50;3.63;;;5.40;99.90;;;;;;5034930;28;20474;-53
2021/12/18 03:45:06;;;;;;;3.50;3.30;;;5.50;99.90;;;;;;5033908;28;20473;-53
2021/12/18 03:47:32;;;;;;;3.90;3.70;;;5.40;99.90;;;;;;5032708;28;20498;-53
2021/12/18 03:49:59;;;;;;;4.07;3.77;;;5.40;99.90;;;;;;5034520;28;20455;-53
2021/12/18 03:52:26;;;;;;;3.63;3.43;;;5.40;99.90;;;;;;5034473;28;20904;-53
2021/12/18 03:54:53;;;;;;;3.80;3.50;;;5.50;99.90;;;;;;5033560;28;20462;-53
2021/12/18 03:57:19;;;;;;;5.03;4.70;;;5.50;99.90;;;;;;5034611;28;20474;-53
2021/12/18 03:59:46;;;;;;;3.90;3.60;;;5.40;99.90;;;;;;5032397;28;20494;-53
2021/12/18 04:02:14;;;;;;;4.07;3.77;;;5.50;99.90;;;;;;5034320;28;20504;-53
2021/12/18 04:04:40;;;;;;;4.83;4.43;;;5.40;99.90;;;;;;5033747;28;20500;-53
2021/12/18 04:07:08;;;;;;;4.30;4.00;;;5.50;99.90;;;;;;5033903;28;21039;-52
2021/12/18 04:09:35;;;;;;;4.83;4.53;;;5.50;99.90;;;;;;5034077;28;20455;-52
2021/12/18 04:12:02;;;;;;;5.73;5.33;;;5.50;99.90;;;;;;5033316;28;20494;-51
2021/12/18 04:14:29;;;;;;;5.33;4.87;;;5.50;99.90;;;;;;5027679;28;21027;-52
2021/12/18 04:16:56;;;;;;;6.63;5.93;;;5.50;99.90;;;;;;5027691;28;20462;-53
2021/12/18 04:19:24;;;;;;;5.90;5.40;;;5.40;99.90;;;;;;5033498;28;20981;-52
2021/12/18 04:21:51;;;;;;;4.90;4.60;;;5.50;99.90;;;;;;5033827;28;20497;-52
2021/12/18 04:24:18;;;;;;;5.00;4.60;;;5.50;99.90;;;;;;5033772;28;20506;-52
2021/12/18 04:26:44;;;;;;;4.53;4.23;;;5.40;99.90;;;;;;5032507;28;20518;-53
2021/12/18 04:29:11;;;;;;;4.77;4.37;;;5.40;99.90;;;;;;5033345;28;20494;-53
2021/12/18 04:31:39;;;;;;;4.80;4.50;;;5.40;99.90;;;;;;5033782;28;20486;-53
2021/12/18 04:34:06;;;;;;;4.63;4.23;;;5.40;99.90;;;;;;5033096;28;20467;-51
2021/12/18 04:36:35;;;;;;;4.40;4.10;;;5.40;99.90;;;;;;5033478;28;20479;-52
2021/12/18 04:39:02;;;;;;;4.77;4.47;;;5.40;97.20;;;;;;5031565;28;20517;-53
2021/12/18 04:41:38;;;;;;;3.60;3.40;;;5.40;96.80;;;;;;5033677;28;20479;-52
2021/12/18 04:44:06;;;;;;;4.63;4.27;;;5.40;93.20;;;;;;5027057;28;20912;-52
2021/12/18 04:46:32;;;;;;;5.30;3.00;;;5.40;99.90;;;;;;5024267;28;20953;-52
2021/12/18 04:48:59;;;;;;;5.00;4.60;;;5.40;96.50;;;;;;5032957;28;20490;-52
2021/12/18 04:51:25;;;;;;;4.10;3.80;;;5.40;93.70;;;;;;5031965;28;20482;-53
2021/12/18 04:53:53;;;;;;;3.60;3.37;;;5.40;89.10;;;;;;5023797;28;20499;-52
2021/12/18 04:56:20;;;;;;;4.63;4.33;;;5.40;87.00;;;;;;5033231;28;20884;-52
2021/12/18 04:58:46;;;;;;;3.90;3.70;;;5.50;84.60;;;;;;5032918;28;20478;-52
2021/12/18 05:01:13;;;;;;;3.73;3.43;;;5.40;80.70;;;;;;5033045;28;20976;-53
2021/12/18 05:03:41;;;;;;;3.97;3.57;;;5.40;77.60;;;;;;5032446;28;20473;-53
2021/12/18 05:06:08;;;;;;;3.70;3.50;;;5.40;73.70;;;;;;5032616;28;20482;-52
2021/12/18 05:08:34;;;;;;;3.57;3.37;;;5.40;71.70;;;;;;5032732;28;20873;-52
2021/12/18 05:11:02;;;;;;;2.27;2.17;;;5.40;73.40;;;;;;5032886;28;20485;-52
2021/12/18 05:13:29;;;;;;;2.37;2.23;;;5.40;74.40;;;;;;5032192;28;20972;-54
2021/12/18 05:15:55;;;;;;;2.33;2.23;;;5.40;74.60;;;;;;5032864;28;20474;-53
2021/12/18 05:18:22;;;;;;;2.80;2.33;;;5.40;82.40;;;;;;5031391;28;20506;-52
2021/12/18 05:20:49;;;;;;;2.17;2.07;;;5.30;94.60;;;;;;5033309;28;20541;-52
2021/12/18 05:23:15;;;;;;;2.57;2.37;;;5.30;90.80;;;;;;5032134;28;20918;-52
2021/12/18 05:25:42;;;;;;;2.43;2.23;;;5.30;91.40;;;;;;5032606;28;20889;-53
2021/12/18 05:28:10;;;;;;;2.80;2.60;;;5.20;85.00;;;;;;5032323;28;20485;-52
2021/12/18 05:30:36;;;;;;;2.17;2.07;;;5.30;79.30;;;;;;5030750;28;20466;-52
2021/12/18 05:33:03;;;;;;;2.57;2.37;;;5.30;87.30;;;;;;5022148;28;20490;-53
2021/12/18 05:35:31;;;;;;;3.00;2.80;;;5.30;76.30;;;;;;5018879;28;20513;-52
2021/12/18 05:38:04;;;;;;;3.17;2.17;;;5.20;74.50;;;;;;5031466;28;20459;-53
2021/12/18 05:40:32;;;;;;;2.73;2.63;;;5.30;70.80;;;;;;5032298;28;20457;-52
2021/12/18 05:42:59;;;;;;;2.80;2.70;;;5.30;66.60;;;;;;5030879;28;20517;-53
2021/12/18 05:45:27;;;;;;;2.50;2.40;;;5.30;61.70;;;;;;5032469;28;20517;-46
2021/12/18 05:47:54;;;;;;;2.50;2.40;;;5.30;57.20;;;;;;5032254;28;20570;-48
2021/12/18 05:50:22;;;;;;;2.53;2.43;;;5.30;56.10;;;;;;5032360;28;20479;-52
2021/12/18 05:52:48;;;;;;;2.80;2.60;;;5.30;51.10;;;;;;5025117;28;20448;-52
2021/12/18 05:55:18;;;;;;;3.20;3.00;;;5.30;45.30;;;;;;5014683;28;20517;-52
2021/12/18 05:57:44;;;;;;;2.97;2.37;;;5.30;46.60;;;;;;5032002;28;20853;-52
2021/12/18 06:00:13;;;;;;;3.00;2.80;;;5.30;43.90;;;;;;5030884;28;20478;-52
2021/12/18 06:02:40;;;;;;;2.80;2.70;;;5.30;38.60;;;;;;5012517;28;20475;-52
2021/12/18 06:05:08;;;;;;;2.63;2.50;;;5.20;39.90;;;;;;5031897;28;20502;-52
2021/12/18 06:07:51;;;;;;;2.30;2.20;;;5.20;43.90;;;;;;5031714;28;21030;-52
2021/12/18 06:10:18;;;;;;;2.50;2.40;;;5.20;40.70;;;;;;5031249;28;20465;-51
2021/12/18 06:12:44;;;;;;;2.77;2.60;;;5.20;36.40;;;;;;5019585;28;20515;-52
2021/12/18 06:15:11;;;;;;;2.00;1.90;;;5.20;37.40;;;;;;5027648;28;21205;-52
2021/12/18 06:17:37;;;;;;;2.50;2.30;;;5.30;32.60;;;;;;5029933;28;20544;-51
2021/12/18 06:20:06;;;;;;;2.30;2.20;;;5.20;24.10;;;;;;5031600;28;20478;-52
2021/12/18 06:22:33;;;;;;;5.37;2.30;;;5.30;27.20;;;;;;5012867;28;20494;-51
2021/12/18 06:24:59;;;;;;;2.00;1.90;;;5.30;26.00;;;;;;5023165;28;20933;-52
2021/12/18 06:27:26;;;;;;;1.90;1.80;;;5.20;28.80;;;;;;5031618;28;20525;-53
2021/12/18 06:29:53;;;;;;;1.90;1.90;;;5.20;23.00;;;;;;5031865;28;20530;-52
2021/12/18 06:32:19;;;;;;;1.90;1.80;;;5.20;25.60;;;;;;5028179;28;20447;-52
2021/12/18 06:34:46;;;;;;;1.97;1.93;;;5.20;22.00;;;;;;5031602;28;20940;-52
2021/12/18 06:37:14;;;;;;;2.37;2.27;;;5.20;21.30;;;;;;5029951;28;21005;-51
2021/12/18 06:39:40;;;;;;;2.40;2.20;;;5.20;22.40;;;;;;5031590;28;20474;-51
2021/12/18 06:42:07;;;;;;;2.20;2.03;;;5.20;20.40;;;;;;5027201;28;20447;-52
2021/12/18 06:44:34;;;;;;;2.60;2.43;;;5.20;89.20;;;;;;5031663;28;20505;-52
2021/12/18 06:47:00;;;;;;;2.83;2.73;;;5.20;89.40;;;;;;5031201;28;20503;-52
2021/12/18 06:49:27;;;;;;;2.63;2.53;;;5.30;91.50;;;;;;5034227;28;20455;-48
2021/12/18 06:51:54;;;;;;;2.77;2.67;;;5.30;80.00;;;;;;5034698;28;20888;-48
2021/12/18 06:54:22;;;;;;;2.27;2.17;;;5.20;75.10;;;;;;5035645;28;20466;-47
2021/12/18 06:56:49;;;;;;;2.30;2.20;;;5.20;94.70;;;;;;5035743;28;20473;-48
2021/12/18 06:59:16;;;;;;;3.50;3.20;;;5.20;81.10;;;;;;5034939;28;20795;-47
2021/12/18 07:01:42;;;;;;;2.17;2.13;;;5.20;99.90;;;;;;5034839;28;20478;-47
2021/12/18 07:04:09;;;;;;;2.57;2.47;;;5.20;98.60;;;;;;5034172;28;20559;-50
2021/12/18 07:06:35;;;;;;;2.40;2.23;;;5.30;85.40;;;;;;5035069;28;21079;-48
2021/12/18 07:09:02;;;;;;;2.70;2.60;;;5.30;93.90;;;;;;5034590;28;20479;-49
2021/12/18 07:11:30;;;;;;;2.80;2.70;;;5.30;98.30;;;;;;5035402;28;20505;-49
2021/12/18 07:13:57;;;;;;;2.50;2.40;;;5.30;86.40;;;;;;5034815;28;20518;-49
2021/12/18 07:16:23;;;;;;;2.83;2.63;;;5.30;99.90;;;;;;5033213;28;20509;-49
2021/12/18 07:18:51;;;;;;;2.90;2.80;;;5.30;99.90;;;;;;5034494;28;20451;-49
2021/12/18 07:21:18;;;;;;;3.43;2.87;;;5.20;99.90;;;;;;5035369;28;20538;-48
2021/12/18 07:23:44;;;;;;;3.07;2.87;;;5.30;99.90;;;;;;5035032;28;20489;-48
2021/12/18 07:26:12;;;;;;;3.40;3.20;;;5.30;99.90;;;;;;5035105;28;20490;-49
2021/12/18 07:28:40;;;;;;;2.87;2.77;;;5.30;99.90;;;;;;5033220;28;20864;-49
2021/12/18 07:31:06;;;;;;;3.13;3.03;;;5.30;99.90;;;;;;5034232;28;20868;-49
2021/12/18 07:33:35;;;;;;;4.40;4.00;;;5.30;99.90;;;;;;5034715;28;20497;-49
2021/12/18 07:36:01;;;;;;;3.10;2.93;;;5.30;99.90;;;;;;5034814;28;20470;-48
2021/12/18 07:38:28;;;;;;;3.23;3.03;;;5.30;99.90;;;;;;5034700;28;20463;-50
2021/12/18 07:40:55;;;;;;;2.80;2.70;;;5.30;99.90;;;;;;5019755;28;20477;-48
2021/12/18 07:43:21;;;;;;;2.27;2.17;;;5.30;99.90;;;;;;5032976;28;20283;-48
2021/12/18 07:45:49;;;;;;;2.73;2.63;;;5.30;99.90;;;;;;5033135;28;20518;-47
2021/12/18 07:48:16;;;;;;;2.07;1.97;;;5.30;88.80;;;;;;5034643;28;20889;-48
2021/12/18 07:50:42;;;;;;;2.43;2.33;;;5.30;86.30;;;;;;5034266;28;20502;-48
2021/12/18 07:53:09;;;;;;;2.20;2.10;;;5.30;90.40;;;;;;5034536;28;20873;-48
2021/12/18 07:55:35;;;;;;;2.63;2.53;;;5.30;99.90;;;;;;5034247;28;20529;-47
2021/12/18 07:58:02;;;;;;;3.00;2.80;;;5.30;99.90;;;;;;5031616;28;20538;-47
2021/12/18 08:00:28;;;;;;;2.77;2.57;;;5.30;20.80;;;;;;5020021;28;20715;-47
2021/12/18 08:02:57;;;;;;;1.60;1.60;;;5.30;32.10;;;;;;5015018;28;20452;-48
2021/12/18 08:05:23;;;;;;;1.47;1.47;;;5.20;41.80;;;;;;5031005;28;20519;-48
2021/12/18 08:07:50;;;;;;;2.20;2.10;;;5.20;37.90;;;;;;5025682;28;20511;-48
2021/12/18 08:10:17;;;;;;;2.20;2.10;;;5.20;56.70;;;;;;5031501;28;20529;-48
2021/12/18 08:12:44;;;;;;;2.33;2.23;;;5.20;49.50;;;;;;5033037;28;20498;-48
2021/12/18 08:15:10;;;;;;;2.33;2.23;;;5.30;57.10;;;;;;5025471;28;20594;-47
2021/12/18 08:17:38;;;;;;;2.20;2.10;;;5.30;61.70;;;;;;5030556;28;20482;-47
2021/12/18 08:20:07;;;;;;;2.00;1.90;;;5.30;65.40;;;;;;5014347;28;20456;-46
2021/12/18 08:22:34;;;;;;;1.73;1.73;;;5.20;73.20;;;;;;5014477;28;20980;-46
2021/12/18 08:25:01;;;;;;;1.27;1.27;;;5.10;99.90;;;;;;5032653;28;20513;-48
2021/12/18 08:27:28;;;;;;;2.23;2.13;;;5.10;94.60;;;;;;5033062;28;20481;-46
2021/12/18 08:29:54;;;;;;;1.30;1.30;;;5.20;85.20;;;;;;5034081;28;20485;-47
2021/12/18 08:32:22;;;;;;;1.67;1.57;;;5.20;88.10;;;;;;5033951;28;20455;-48
2021/12/18 08:34:48;;;;;;;1.60;1.60;;;5.20;86.10;;;;;;5033765;28;20463;-47
2021/12/18 08:37:16;;;;;;;1.73;1.63;;;5.10;99.90;;;;;;5029739;28;20463;-48
2021/12/18 08:39:43;;;;;;;1.67;1.63;;;5.20;98.80;;;;;;5033462;28;20505;-46
2021/12/18 08:42:10;;;;;;;1.80;1.70;;;5.20;99.90;;;;;;5033628;28;20478;-51
2021/12/18 08:44:36;;;;;;;1.67;1.67;;;5.20;99.90;;;;;;5033676;28;20525;-48
2021/12/18 08:47:03;;;;;;;1.30;1.30;;;5.20;96.50;;;;;;5022247;28;20537;-47
2021/12/18 08:49:30;;;;;;;1.57;1.57;;;5.20;98.20;;;;;;5016173;28;20952;-47
2021/12/18 08:51:57;;;;;;;1.33;1.33;;;5.30;97.70;;;;;;5033481;28;20513;-48
2021/12/18 08:54:25;;;;;;;1.70;1.60;;;5.30;98.70;;;;;;5033245;28;20494;-47
2021/12/18 08:56:52;;;;;;;1.90;1.80;;;5.30;96.30;;;;;;5032429;28;20479;-46
2021/12/18 08:59:18;;;;;;;1.53;1.53;;;5.30;96.80;;;;;;5028086;28;20452;-48
2021/12/18 09:01:45;;;;;;;2.00;1.90;;;5.40;89.60;;;;;;5013766;28;20953;-48
2021/12/18 09:04:12;;;;;;;1.63;1.53;;;5.30;93.90;;;;;;5030561;28;20521;-47
2021/12/18 09:06:38;;;;;;;2.27;2.17;;;5.40;89.50;;;;;;5032497;28;20478;-47
2021/12/18 09:09:06;;;;;;;2.00;1.87;;;5.30;86.80;;;;;;5032456;28;20451;-48
2021/12/18 09:11:34;;;;;;;1.80;1.80;;;5.40;77.00;;;;;;5033097;28;20466;-46
2021/12/18 09:14:02;;;;;;;2.33;2.20;;;5.40;68.00;;;;;;5033129;28;20510;-48
2021/12/18 09:16:29;;;;;;;3.67;2.73;;;5.40;64.70;;;;;;5032168;28;20466;-52
2021/12/18 09:18:56;;;;;;;2.70;2.60;;;5.40;61.70;;;;;;5032756;28;20466;-52
2021/12/18 09:21:22;;;;;;;2.30;2.20;;;5.50;61.70;;;;;;5032796;28;20478;-52
2021/12/18 09:23:49;;;;;;;4.03;3.37;;;5.40;56.80;;;;;;5032491;28;20521;-53
2021/12/18 09:26:16;;;;;;;2.17;2.07;;;5.50;50.10;;;;;;5032328;28;20485;-52
2021/12/18 09:28:44;;;;;;;2.63;2.40;;;5.50;46.60;;;;;;5031542;28;20621;-53
2021/12/18 09:31:10;;;;;;;2.17;2.07;;;5.50;52.60;;;;;;5031896;28;20499;-53
2021/12/18 09:33:37;;;;;;;4.03;2.10;;;5.50;46.50;;;;;;5032639;28;20508;-52
2021/12/18 09:36:04;;;;;;;2.10;1.90;;;5.50;45.40;;;;;;5031739;28;20870;-52
2021/12/18 09:38:30;;;;;;;2.27;2.17;;;5.50;40.20;;;;;;5030675;28;20455;-52
2021/12/18 09:40:58;;;;;;;2.40;2.30;;;5.50;36.10;;;;;;5032521;28;20439;-52
2021/12/18 09:43:26;;;;;;;2.30;2.10;;;5.50;32.10;;;;;;5032443;28;20451;-51
2021/12/18 09:45:54;;;;;;;2.20;2.10;;;5.60;24.00;;;;;;5029949;28;20469;-52
2021/12/18 09:48:23;;;;;;;2.07;1.97;;;5.60;20.70;;;;;;5031883;28;21038;-52
2021/12/18 09:50:56;;;;;;;2.13;2.03;;;5.60;26.30;;;;;;5032230;28;20489;-52
2021/12/18 09:53:22;;;;;;;2.77;2.67;;;5.60;81.20;;;;;;5032228;28;20489;-53
2021/12/18 09:55:49;;;;;;;2.40;2.30;;;5.60;99.90;;;;;;5029859;28;20482;-53
2021/12/18 09:58:15;;;;;;;6.10;2.83;;;5.60;93.80;;;;;;5032243;28;20466;-52
2021/12/18 10:00:42;;;;;;;2.63;2.47;;;5.60;81.10;;;;;;5032121;28;20447;-52
2021/12/18 10:03:10;;;;;;;2.50;2.40;;;5.70;99.90;;;;;;5032203;28;20479;-52
2021/12/18 10:05:38;;;;;;;3.13;2.93;;;5.70;99.90;;;;;;5020437;28;20627;-52
2021/12/18 10:08:07;;;;;;;3.73;3.50;;;5.70;99.90;;;;;;5016978;28;20493;-53
2021/12/18 10:10:34;;;;;;;2.93;2.73;;;5.80;94.70;;;;;;5031641;28;20482;-52
2021/12/18 10:13:05;;;;;;;3.63;3.43;;;5.80;90.90;;;;;;5024883;28;21054;-52
2021/12/18 10:15:32;;;;;;;5.33;3.23;;;5.80;99.90;;;;;;5021909;28;20537;-52
2021/12/18 10:18:07;;;;;;;3.10;2.93;;;5.80;99.90;;;;;;5030269;28;20504;-51
2021/12/18 10:20:35;;;;;;;2.97;2.80;;;5.80;20.70;;;;;;5029991;28;20477;-53
2021/12/18 10:23:04;;;;;;;4.10;3.70;;;5.80;20.90;;;;;;5031458;28;20483;-53
2021/12/18 10:25:32;;;;;;;3.17;2.97;;;5.80;99.90;;;;;;5031318;28;20535;-53
2021/12/18 10:28:04;;;;;;;2.90;2.80;;;5.90;99.90;;;;;;5031684;28;21058;-52
2021/12/18 10:30:31;;;;;;;3.60;3.30;;;5.90;99.90;;;;;;5031684;28;20482;-52
2021/12/18 10:33:02;;;;;;;3.67;3.40;;;5.90;99.90;;;;;;5030189;28;20506;-52
2021/12/18 10:35:42;;;;;;;3.77;3.47;;;6.00;99.90;;;;;;5031806;28;20466;-53
2021/12/18 10:38:10;;;;;;;4.67;4.27;;;5.90;26.20;;;;;;5031635;28;20442;-53
2021/12/18 10:40:43;;;;;;;3.40;3.20;;;6.00;99.90;;;;;;5031396;28;20489;-52
2021/12/18 10:43:10;;;;;;;2.90;2.80;;;6.00;23.20;;;;;;5031086;28;20497;-53
2021/12/18 10:45:37;;;;;;;3.60;3.30;;;6.00;25.00;;;;;;5030028;28;20490;-51
2021/12/18 10:48:05;;;;;;;3.60;3.37;;;6.10;74.60;;;;;;5031294;28;20486;-52
2021/12/18 10:50:36;;;;;;;3.10;2.90;;;6.10;20.40;;;;;;5031622;28;20454;-52
2021/12/18 10:53:07;;;;;;;3.23;3.03;;;6.10;72.00;;;;;;5028209;28;20502;-52
2021/12/18 10:55:37;;;;;;;3.33;3.13;;;6.20;26.50;;;;;;5027655;28;20498;-52
2021/12/18 10:58:06;;;;;;;7.03;4.00;;;6.20;27.30;;;;;;5029959;28;20495;-52
2021/12/18 11:00:39;;;;;;;3.77;3.33;;;6.20;28.40;;;;;;5031673;28;20455;-52
2021/12/18 11:03:21;;;;;;;3.20;3.00;;;6.20;33.80;;;;;;5027886;28;20475;-53
2021/12/18 11:06:04;;;;;;;2.77;2.67;;;6.10;36.50;;;;;;5011644;28;20499;-52
2021/12/18 11:08:33;;;;;;;3.13;2.93;;;6.30;31.00;;;;;;5011546;28;20519;-52
2021/12/18 11:13:48;;;;;;;4.10;3.73;;;6.30;49.20;;;;;;5022416;28;20439;-53
2021/12/18 11:16:15;;;;;;;3.33;3.13;;;6.20;45.60;;;;;;5011553;28;20450;-52
2021/12/18 11:18:42;;;;;;;3.70;3.40;;;6.20;61.60;;;;;;5015937;28;20466;-52
2021/12/18 11:21:09;;;;;;;6.00;4.23;;;6.20;78.10;;;;;;5030752;28;20513;-51
2021/12/18 11:23:40;;;;;;;4.00;3.70;;;6.20;61.60;;;;;;5024259;28;20483;-53
2021/12/18 11:26:08;;;;;;;3.70;3.50;;;6.20;72.00;;;;;;5029673;28;20473;-53
2021/12/18 11:28:36;;;;;;;4.17;3.87;;;6.30;69.30;;;;;;5030614;28;20565;-52
2021/12/18 11:31:03;;;;;;;4.57;4.17;;;6.20;68.70;;;;;;5029656;28;20446;-52
2021/12/18 11:33:31;;;;;;;7.03;4.23;;;6.30;66.60;;;;;;5025244;28;20479;-52
2021/12/18 11:35:59;;;;;;;4.63;4.20;;;6.30;68.80;;;;;;5013180;28;20505;-52
2021/12/18 11:38:27;;;;;;;4.40;4.10;;;6.20;72.90;;;;;;5015017;28;20479;-52
2021/12/18 11:40:55;;;;;;;3.87;3.57;;;6.30;74.20;;;;;;5015110;28;20471;-52
2021/12/18 11:43:35;;;;;;;3.90;3.70;;;6.30;78.30;;;;;;5032319;28;20864;-51
2021/12/18 11:46:03;;;;;;;4.43;4.07;;;6.30;79.30;;;;;;5034744;28;20932;-52
2021/12/18 11:48:52;;;;;;;4.30;3.90;;;6.30;88.50;;;;;;5034649;28;20518;-52
2021/12/18 11:51:19;;;;;;;5.50;4.13;;;6.30;84.90;;;;;;5034448;28;20450;-51
2021/12/18 11:53:45;;;;;;;4.03;3.73;;;6.30;84.10;;;;;;5033604;28;20451;-52
2021/12/18 11:56:14;;;;;;;4.57;4.23;;;6.40;86.60;;;;;;5032559;28;20544;-52
2021/12/18 11:58:44;;;;;;;5.00;4.37;;;6.40;87.10;;;;;;5034458;28;20470;-52
2021/12/18 12:01:17;;;;;;;4.63;4.23;;;6.30;82.80;;;;;;5034779;28;20483;-53
2021/12/18 12:03:46;;;;;;;4.73;4.33;;;6.40;79.50;;;;;;5032946;28;20487;-52
2021/12/18 12:06:24;;;;;;;3.80;3.50;;;6.40;79.30;;;;;;5034247;28;20956;-52
2021/12/18 12:09:10;;;;;;;4.00;3.70;;;6.40;84.80;;;;;;5033481;28;20478;-53
2021/12/18 12:11:50;;;;;;;4.20;3.37;;;6.40;86.20;;;;;;5034046;28;20454;-52
2021/12/18 12:14:21;;;;;;;3.90;3.60;;;6.40;81.80;;;;;;5022397;28;20577;-52
2021/12/18 12:17:08;;;;;;;3.43;3.23;;;6.40;75.50;;;;;;5014276;28;20530;-53
2021/12/18 12:19:54;;;;;;;10.60;3.90;;;6.40;71.20;;;;;;5014048;28;20460;-52
2021/12/18 12:22:41;;;;;;;4.20;3.50;;;6.40;71.60;;;;;;5018848;28;20554;-52
2021/12/18 12:25:10;;;;;;;3.17;2.97;;;6.50;72.60;;;;;;5024518;28;20466;-52
2021/12/18 12:27:39;;;;;;;3.30;3.00;;;6.50;77.00;;;;;;5033787;28;20497;-52
2021/12/18 12:30:09;;;;;;;2.80;2.70;;;6.50;77.90;;;;;;5034201;28;20478;-52
2021/12/18 12:32:36;;;;;;;2.67;2.57;;;6.50;88.70;;;;;;5033374;28;20471;-53
2021/12/18 12:35:06;;;;;;;2.20;2.10;;;6.50;86.70;;;;;;5031887;28;20513;-52
2021/12/18 12:37:38;;;;;;;2.37;2.17;;;6.60;80.20;;;;;;5033646;28;20435;-52
2021/12/18 12:40:10;;;;;;;2.10;2.00;;;6.60;91.70;;;;;;5033951;28;20523;-52
2021/12/18 12:42:41;;;;;;;2.73;2.53;;;6.60;99.90;;;;;;5032290;28;20501;-52
2021/12/18 12:45:13;;;;;;;3.33;2.53;;;6.60;94.90;;;;;;5031447;28;20506;-52
2021/12/18 12:47:41;;;;;;;2.30;1.97;;;6.70;92.90;;;;;;5032897;28;20450;-52
2021/12/18 12:50:27;;;;;;;2.13;2.03;;;6.70;95.80;;;;;;5030075;28;21083;-52
2021/12/18 12:52:56;;;;;;;1.80;1.70;;;6.60;99.90;;;;;;5016378;28;20478;-52
2021/12/18 12:55:25;;;;;;;2.07;1.90;;;6.70;99.90;;;;;;5033494;28;21038;-52
2021/12/18 12:57:55;;;;;;;2.50;1.90;;;6.70;99.90;;;;;;5031445;28;20465;-51
2021/12/18 13:00:43;;;;;;;2.17;1.87;;;6.70;99.90;;;;;;5032732;28;20537;-52
2021/12/18 13:03:14;;;;;;;1.83;1.73;;;6.70;99.90;;;;;;5033375;28;20959;-52
2021/12/18 13:06:01;;;;;;;2.00;1.90;;;6.70;99.90;;;;;;5033249;28;20509;-52
2021/12/18 13:08:32;;;;;;;2.40;2.10;;;6.60;99.90;;;;;;5031719;28;20482;-52
2021/12/18 13:11:00;;;;;;;2.30;2.10;;;6.60;99.50;;;;;;5013718;28;20466;-52
2021/12/18 13:13:30;;;;;;;2.13;2.03;;;6.60;87.00;;;;;;5018631;28;20559;-52
2021/12/18 13:15:59;;;;;;;2.57;2.37;;;6.60;84.40;;;;;;5033252;28;20501;-50
2021/12/18 13:18:28;;;;;;;3.03;2.83;;;6.60;79.70;;;;;;5032864;28;20481;-50
2021/12/18 13:20:58;;;;;;;3.43;3.23;;;6.60;72.30;;;;;;5022633;28;20491;-50
2021/12/18 13:23:44;;;;;;;3.30;3.10;;;6.60;61.50;;;;;;5031530;28;20474;-50
2021/12/18 13:26:12;;;;;;;3.40;3.10;;;6.50;57.00;;;;;;5033142;28;20501;-51
2021/12/18 13:28:55;;;;;;;2.97;2.87;;;6.50;51.40;;;;;;5032735;28;20565;-51
2021/12/18 13:31:24;;;;;;;4.20;3.90;;;6.50;47.60;;;;;;5032620;28;20482;-47
2021/12/18 13:34:00;;;;;;;3.93;3.63;;;6.50;38.30;;;;;;5031685;28;20482;-47
2021/12/18 13:36:49;;;;;;;4.53;4.13;;;6.50;34.00;;;;;;5032813;28;20489;-49